sensor_id;sensor_type;location;lat;lon;timestamp;P1;durP1;ratioP1;P2;durP2;ratioP2
9536;SDS011;4807;48.024;11.726;2023-03-30T00:01:43;5.10;;;1.33;;
9536;SDS011;4807;48.024;11.726;2023-03-30T00:04:52;6.37;;;1.07;;
9536;SDS011;4807;48.024;11.726;2023-03-30T00:08:00;2.87;;;0.70;;
9536;SDS011;4807;48.024;11.726;2023-03-30T00:11:11;3.07;;;0.80;;
9536;SDS011;4807;48.024;11.726;2023-03-30T00:14:22;2.03;;;0.93;;
9536;SDS011;4807;48.024;11.726;2023-03-30T00:17:34;2.50;;;0.83;;
9536;SDS011;4807;48.024;11.726;2023-03-30T00:20:43;4.10;;;0.63;;
9536;SDS011;4807;48.024;11.726;2023-03-30T00:23:56;3.30;;;0.73;;
9536;SDS011;4807;48.024;11.726;2023-03-30T00:27:06;3.93;;;0.90;;
9536;SDS011;4807;48.024;11.726;2023-03-30T00:30:15;3.70;;;0.70;;
9536;SDS011;4807;48.024;11.726;2023-03-30T00:33:24;6.70;;;0.73;;
9536;SDS011;4807;48.024;11.726;2023-03-30T00:36:50;4.33;;;0.97;;
9536;SDS011;4807;48.024;11.726;2023-03-30T00:39:58;3.90;;;1.43;;
9536;SDS011;4807;48.024;11.726;2023-03-30T00:43:10;3.90;;;0.70;;
9536;SDS011;4807;48.024;11.726;2023-03-30T00:46:18;6.80;;;1.00;;
9536;SDS011;4807;48.024;11.726;2023-03-30T00:49:28;2.80;;;0.80;;
9536;SDS011;4807;48.024;11.726;2023-03-30T00:52:37;2.13;;;0.70;;
9536;SDS011;4807;48.024;11.726;2023-03-30T00:55:48;4.97;;;1.00;;
9536;SDS011;4807;48.024;11.726;2023-03-30T00:59:01;5.50;;;0.67;;
9536;SDS011;4807;48.024;11.726;2023-03-30T01:02:13;4.43;;;1.10;;
9536;SDS011;4807;48.024;11.726;2023-03-30T01:05:21;2.60;;;0.73;;
9536;SDS011;4807;48.024;11.726;2023-03-30T01:08:30;3.03;;;0.80;;
9536;SDS011;4807;48.024;11.726;2023-03-30T01:11:41;2.57;;;0.80;;
9536;SDS011;4807;48.024;11.726;2023-03-30T01:14:51;4.30;;;0.90;;
9536;SDS011;4807;48.024;11.726;2023-03-30T01:18:03;6.33;;;1.10;;
9536;SDS011;4807;48.024;11.726;2023-03-30T01:21:39;5.23;;;1.10;;
9536;SDS011;4807;48.024;11.726;2023-03-30T01:28:55;5.10;;;0.80;;
9536;SDS011;4807;48.024;11.726;2023-03-30T01:32:27;1.87;;;0.70;;
9536;SDS011;4807;48.024;11.726;2023-03-30T01:36:20;4.67;;;1.07;;
9536;SDS011;4807;48.024;11.726;2023-03-30T01:40:10;3.93;;;1.07;;
9536;SDS011;4807;48.024;11.726;2023-03-30T01:43:24;2.67;;;0.70;;
9536;SDS011;4807;48.024;11.726;2023-03-30T01:46:44;2.80;;;0.70;;
9536;SDS011;4807;48.024;11.726;2023-03-30T01:49:59;4.23;;;0.70;;
9536;SDS011;4807;48.024;11.726;2023-03-30T01:53:15;5.30;;;0.77;;
9536;SDS011;4807;48.024;11.726;2023-03-30T01:56:37;2.17;;;0.70;;
9536;SDS011;4807;48.024;11.726;2023-03-30T01:59:51;3.97;;;0.90;;
9536;SDS011;4807;48.024;11.726;2023-03-30T02:03:05;2.80;;;1.30;;
9536;SDS011;4807;48.024;11.726;2023-03-30T02:06:19;3.40;;;0.93;;
9536;SDS011;4807;48.024;11.726;2023-03-30T02:09:34;5.20;;;0.60;;
9536;SDS011;4807;48.024;11.726;2023-03-30T02:12:48;2.90;;;0.80;;
9536;SDS011;4807;48.024;11.726;2023-03-30T02:15:59;4.20;;;0.80;;
9536;SDS011;4807;48.024;11.726;2023-03-30T02:19:17;2.07;;;0.60;;
9536;SDS011;4807;48.024;11.726;2023-03-30T02:22:26;6.30;;;0.87;;
9536;SDS011;4807;48.024;11.726;2023-03-30T02:25:37;6.53;;;0.83;;
9536;SDS011;4807;48.024;11.726;2023-03-30T02:28:48;4.67;;;0.80;;
9536;SDS011;4807;48.024;11.726;2023-03-30T02:31:57;1.50;;;0.83;;
9536;SDS011;4807;48.024;11.726;2023-03-30T02:35:22;4.90;;;1.37;;
9536;SDS011;4807;48.024;11.726;2023-03-30T02:38:54;3.87;;;0.90;;
9536;SDS011;4807;48.024;11.726;2023-03-30T02:46:10;5.57;;;0.77;;
9536;SDS011;4807;48.024;11.726;2023-03-30T02:49:51;7.03;;;1.00;;
9536;SDS011;4807;48.024;11.726;2023-03-30T02:53:05;2.57;;;0.80;;
9536;SDS011;4807;48.024;11.726;2023-03-30T02:56:24;7.03;;;0.97;;
9536;SDS011;4807;48.024;11.726;2023-03-30T02:59:45;3.50;;;1.00;;
9536;SDS011;4807;48.024;11.726;2023-03-30T03:03:04;6.87;;;1.20;;
9536;SDS011;4807;48.024;11.726;2023-03-30T03:06:20;8.07;;;1.40;;
9536;SDS011;4807;48.024;11.726;2023-03-30T03:09:33;5.80;;;1.20;;
9536;SDS011;4807;48.024;11.726;2023-03-30T03:12:42;6.03;;;1.00;;
9536;SDS011;4807;48.024;11.726;2023-03-30T03:15:52;4.10;;;0.93;;
9536;SDS011;4807;48.024;11.726;2023-03-30T03:19:06;7.30;;;1.10;;
9536;SDS011;4807;48.024;11.726;2023-03-30T03:22:16;5.20;;;1.13;;
9536;SDS011;4807;48.024;11.726;2023-03-30T03:25:25;6.17;;;1.20;;
9536;SDS011;4807;48.024;11.726;2023-03-30T03:28:40;9.63;;;1.50;;
9536;SDS011;4807;48.024;11.726;2023-03-30T03:31:50;5.10;;;1.20;;
9536;SDS011;4807;48.024;11.726;2023-03-30T03:35:02;8.40;;;1.30;;
9536;SDS011;4807;48.024;11.726;2023-03-30T03:38:12;4.37;;;1.47;;
9536;SDS011;4807;48.024;11.726;2023-03-30T03:41:21;8.57;;;2.03;;
9536;SDS011;4807;48.024;11.726;2023-03-30T03:44:29;7.97;;;1.67;;
9536;SDS011;4807;48.024;11.726;2023-03-30T03:47:38;7.83;;;1.73;;
9536;SDS011;4807;48.024;11.726;2023-03-30T03:50:51;7.67;;;1.70;;
9536;SDS011;4807;48.024;11.726;2023-03-30T03:54:04;9.13;;;1.60;;
9536;SDS011;4807;48.024;11.726;2023-03-30T03:57:14;5.97;;;1.70;;
9536;SDS011;4807;48.024;11.726;2023-03-30T04:00:22;9.93;;;1.63;;
9536;SDS011;4807;48.024;11.726;2023-03-30T04:03:32;6.30;;;1.90;;
9536;SDS011;4807;48.024;11.726;2023-03-30T04:06:42;8.93;;;1.10;;
9536;SDS011;4807;48.024;11.726;2023-03-30T04:09:52;11.33;;;1.73;;
9536;SDS011;4807;48.024;11.726;2023-03-30T04:13:29;7.57;;;1.30;;
9536;SDS011;4807;48.024;11.726;2023-03-30T04:16:51;5.13;;;1.37;;
9536;SDS011;4807;48.024;11.726;2023-03-30T04:20:22;8.90;;;1.67;;
9536;SDS011;4807;48.024;11.726;2023-03-30T04:23:54;10.10;;;1.50;;
9536;SDS011;4807;48.024;11.726;2023-03-30T04:27:29;6.10;;;1.50;;
9536;SDS011;4807;48.024;11.726;2023-03-30T04:30:57;6.10;;;1.33;;
9536;SDS011;4807;48.024;11.726;2023-03-30T04:34:25;7.33;;;1.50;;
9536;SDS011;4807;48.024;11.726;2023-03-30T04:38:05;5.60;;;1.40;;
9536;SDS011;4807;48.024;11.726;2023-03-30T04:41:44;7.67;;;1.77;;
9536;SDS011;4807;48.024;11.726;2023-03-30T04:45:25;8.53;;;2.97;;
9536;SDS011;4807;48.024;11.726;2023-03-30T04:48:39;10.60;;;3.57;;
9536;SDS011;4807;48.024;11.726;2023-03-30T04:52:26;9.70;;;2.23;;
9536;SDS011;4807;48.024;11.726;2023-03-30T04:55:58;8.87;;;1.97;;
9536;SDS011;4807;48.024;11.726;2023-03-30T04:59:34;8.83;;;2.37;;
9536;SDS011;4807;48.024;11.726;2023-03-30T05:02:42;4.50;;;1.83;;
9536;SDS011;4807;48.024;11.726;2023-03-30T05:06:05;5.93;;;2.07;;
9536;SDS011;4807;48.024;11.726;2023-03-30T05:09:31;7.63;;;2.20;;
9536;SDS011;4807;48.024;11.726;2023-03-30T05:12:58;4.83;;;1.57;;
9536;SDS011;4807;48.024;11.726;2023-03-30T05:16:26;6.40;;;1.70;;
9536;SDS011;4807;48.024;11.726;2023-03-30T05:20:06;3.50;;;1.90;;
9536;SDS011;4807;48.024;11.726;2023-03-30T05:23:54;9.23;;;2.40;;
9536;SDS011;4807;48.024;11.726;2023-03-30T05:27:12;3.80;;;2.33;;
9536;SDS011;4807;48.024;11.726;2023-03-30T05:30:41;13.97;;;2.03;;
9536;SDS011;4807;48.024;11.726;2023-03-30T05:34:10;10.37;;;2.10;;
9536;SDS011;4807;48.024;11.726;2023-03-30T05:37:42;7.83;;;2.50;;
9536;SDS011;4807;48.024;11.726;2023-03-30T05:41:05;5.03;;;1.50;;
9536;SDS011;4807;48.024;11.726;2023-03-30T05:44:33;8.97;;;1.80;;
9536;SDS011;4807;48.024;11.726;2023-03-30T05:48:19;5.03;;;1.80;;
9536;SDS011;4807;48.024;11.726;2023-03-30T05:51:45;4.53;;;1.83;;
9536;SDS011;4807;48.024;11.726;2023-03-30T05:55:10;7.47;;;2.23;;
9536;SDS011;4807;48.024;11.726;2023-03-30T05:58:32;13.60;;;3.27;;
9536;SDS011;4807;48.024;11.726;2023-03-30T06:02:01;12.23;;;2.93;;
9536;SDS011;4807;48.024;11.726;2023-03-30T06:05:09;5.67;;;2.30;;
9536;SDS011;4807;48.024;11.726;2023-03-30T06:08:21;8.60;;;2.00;;
9536;SDS011;4807;48.024;11.726;2023-03-30T06:11:34;7.40;;;2.07;;
9536;SDS011;4807;48.024;11.726;2023-03-30T06:14:55;6.07;;;1.70;;
9536;SDS011;4807;48.024;11.726;2023-03-30T06:18:12;6.30;;;1.60;;
9536;SDS011;4807;48.024;11.726;2023-03-30T06:21:29;7.13;;;2.03;;
9536;SDS011;4807;48.024;11.726;2023-03-30T06:25:02;9.60;;;1.87;;
9536;SDS011;4807;48.024;11.726;2023-03-30T06:28:11;10.00;;;3.23;;
9536;SDS011;4807;48.024;11.726;2023-03-30T06:31:19;8.83;;;2.00;;
9536;SDS011;4807;48.024;11.726;2023-03-30T06:34:35;4.23;;;1.53;;
9536;SDS011;4807;48.024;11.726;2023-03-30T06:37:43;6.00;;;1.73;;
9536;SDS011;4807;48.024;11.726;2023-03-30T06:40:54;8.60;;;2.10;;
9536;SDS011;4807;48.024;11.726;2023-03-30T06:44:05;10.80;;;2.17;;
9536;SDS011;4807;48.024;11.726;2023-03-30T06:51:07;6.43;;;1.57;;
9536;SDS011;4807;48.024;11.726;2023-03-30T06:54:34;11.13;;;1.73;;
9536;SDS011;4807;48.024;11.726;2023-03-30T06:57:48;5.53;;;1.40;;
9536;SDS011;4807;48.024;11.726;2023-03-30T07:01:07;6.43;;;1.37;;
9536;SDS011;4807;48.024;11.726;2023-03-30T07:04:35;5.23;;;1.40;;
9536;SDS011;4807;48.024;11.726;2023-03-30T07:08:08;5.43;;;1.57;;
9536;SDS011;4807;48.024;11.726;2023-03-30T07:11:24;4.80;;;1.87;;
9536;SDS011;4807;48.024;11.726;2023-03-30T07:14:47;7.60;;;1.50;;
9536;SDS011;4807;48.024;11.726;2023-03-30T07:18:00;6.47;;;1.57;;
9536;SDS011;4807;48.024;11.726;2023-03-30T07:24:37;4.20;;;1.57;;
9536;SDS011;4807;48.024;11.726;2023-03-30T07:27:48;9.10;;;1.77;;
9536;SDS011;4807;48.024;11.726;2023-03-30T07:31:03;9.77;;;1.77;;
9536;SDS011;4807;48.024;11.726;2023-03-30T07:38:02;7.17;;;1.60;;
9536;SDS011;4807;48.024;11.726;2023-03-30T07:41:17;7.30;;;2.93;;
9536;SDS011;4807;48.024;11.726;2023-03-30T07:48:23;5.33;;;1.80;;
9536;SDS011;4807;48.024;11.726;2023-03-30T08:00:26;10.63;;;1.70;;
9536;SDS011;4807;48.024;11.726;2023-03-30T08:11:17;6.60;;;1.23;;
9536;SDS011;4807;48.024;11.726;2023-03-30T08:22:30;5.73;;;1.50;;
9536;SDS011;4807;48.024;11.726;2023-03-30T08:29:18;3.20;;;1.17;;
9536;SDS011;4807;48.024;11.726;2023-03-30T08:33:13;2.07;;;0.90;;
9536;SDS011;4807;48.024;11.726;2023-03-30T08:36:36;6.07;;;1.20;;
9536;SDS011;4807;48.024;11.726;2023-03-30T09:11:38;5.00;;;1.40;;
9536;SDS011;4807;48.024;11.726;2023-03-30T09:14:49;3.67;;;1.40;;
9536;SDS011;4807;48.024;11.726;2023-03-30T09:18:03;3.10;;;1.23;;
9536;SDS011;4807;48.024;11.726;2023-03-30T09:21:25;3.33;;;1.10;;
9536;SDS011;4807;48.024;11.726;2023-03-30T09:24:43;3.73;;;1.40;;
9536;SDS011;4807;48.024;11.726;2023-03-30T09:27:58;4.47;;;1.30;;
9536;SDS011;4807;48.024;11.726;2023-03-30T09:31:21;3.43;;;1.20;;
9536;SDS011;4807;48.024;11.726;2023-03-30T09:34:39;7.53;;;2.10;;
9536;SDS011;4807;48.024;11.726;2023-03-30T09:37:53;6.57;;;1.23;;
9536;SDS011;4807;48.024;11.726;2023-03-30T09:41:02;5.73;;;1.33;;
9536;SDS011;4807;48.024;11.726;2023-03-30T09:44:25;3.30;;;1.10;;
9536;SDS011;4807;48.024;11.726;2023-03-30T09:47:42;4.47;;;1.60;;
9536;SDS011;4807;48.024;11.726;2023-03-30T09:50:52;3.07;;;1.30;;
9536;SDS011;4807;48.024;11.726;2023-03-30T09:54:02;8.30;;;1.40;;
9536;SDS011;4807;48.024;11.726;2023-03-30T09:57:21;4.07;;;1.00;;
9536;SDS011;4807;48.024;11.726;2023-03-30T10:00:33;6.63;;;1.10;;
9536;SDS011;4807;48.024;11.726;2023-03-30T10:03:43;5.03;;;0.97;;
9536;SDS011;4807;48.024;11.726;2023-03-30T10:07:17;9.73;;;1.23;;
9536;SDS011;4807;48.024;11.726;2023-03-30T10:10:33;6.87;;;1.47;;
9536;SDS011;4807;48.024;11.726;2023-03-30T10:13:43;6.57;;;1.10;;
9536;SDS011;4807;48.024;11.726;2023-03-30T10:16:52;6.33;;;1.70;;
9536;SDS011;4807;48.024;11.726;2023-03-30T10:20:16;5.63;;;1.40;;
9536;SDS011;4807;48.024;11.726;2023-03-30T10:23:33;6.50;;;1.27;;
9536;SDS011;4807;48.024;11.726;2023-03-30T10:26:49;4.90;;;1.10;;
9536;SDS011;4807;48.024;11.726;2023-03-30T10:30:07;7.53;;;1.57;;
9536;SDS011;4807;48.024;11.726;2023-03-30T10:33:18;8.00;;;1.20;;
9536;SDS011;4807;48.024;11.726;2023-03-30T10:36:29;10.00;;;1.90;;
9536;SDS011;4807;48.024;11.726;2023-03-30T10:39:41;10.63;;;1.73;;
9536;SDS011;4807;48.024;11.726;2023-03-30T10:42:54;8.90;;;1.83;;
9536;SDS011;4807;48.024;11.726;2023-03-30T10:46:05;11.17;;;1.57;;
9536;SDS011;4807;48.024;11.726;2023-03-30T10:49:29;9.07;;;1.53;;
9536;SDS011;4807;48.024;11.726;2023-03-30T10:52:57;7.10;;;1.40;;
9536;SDS011;4807;48.024;11.726;2023-03-30T10:56:23;9.10;;;1.67;;
9536;SDS011;4807;48.024;11.726;2023-03-30T10:59:45;8.60;;;1.47;;
9536;SDS011;4807;48.024;11.726;2023-03-30T11:03:15;12.80;;;2.23;;
9536;SDS011;4807;48.024;11.726;2023-03-30T11:06:34;7.13;;;2.37;;
9536;SDS011;4807;48.024;11.726;2023-03-30T11:09:51;6.20;;;1.43;;
9536;SDS011;4807;48.024;11.726;2023-03-30T11:13:10;7.50;;;1.43;;
9536;SDS011;4807;48.024;11.726;2023-03-30T11:16:26;8.23;;;1.57;;
9536;SDS011;4807;48.024;11.726;2023-03-30T11:19:47;6.30;;;1.23;;
9536;SDS011;4807;48.024;11.726;2023-03-30T11:23:02;9.00;;;1.57;;
9536;SDS011;4807;48.024;11.726;2023-03-30T11:26:21;6.93;;;1.90;;
9536;SDS011;4807;48.024;11.726;2023-03-30T11:29:41;9.10;;;1.63;;
9536;SDS011;4807;48.024;11.726;2023-03-30T11:32:57;9.40;;;1.07;;
9536;SDS011;4807;48.024;11.726;2023-03-30T11:36:18;10.37;;;1.37;;
9536;SDS011;4807;48.024;11.726;2023-03-30T11:39:39;10.77;;;1.30;;
9536;SDS011;4807;48.024;11.726;2023-03-30T11:42:55;10.17;;;2.23;;
9536;SDS011;4807;48.024;11.726;2023-03-30T11:46:05;5.87;;;1.53;;
9536;SDS011;4807;48.024;11.726;2023-03-30T11:49:24;7.33;;;1.80;;
9536;SDS011;4807;48.024;11.726;2023-03-30T11:53:01;3.27;;;1.30;;
9536;SDS011;4807;48.024;11.726;2023-03-30T11:56:33;4.53;;;1.30;;
9536;SDS011;4807;48.024;11.726;2023-03-30T12:00:00;1.90;;;1.10;;
9536;SDS011;4807;48.024;11.726;2023-03-30T12:03:38;3.17;;;1.27;;
9536;SDS011;4807;48.024;11.726;2023-03-30T12:06:54;3.60;;;1.30;;
9536;SDS011;4807;48.024;11.726;2023-03-30T12:10:08;4.23;;;1.13;;
9536;SDS011;4807;48.024;11.726;2023-03-30T12:13:26;3.03;;;1.33;;
9536;SDS011;4807;48.024;11.726;2023-03-30T12:16:56;1.60;;;1.13;;
9536;SDS011;4807;48.024;11.726;2023-03-30T12:20:33;0.90;;;0.80;;
9536;SDS011;4807;48.024;11.726;2023-03-30T12:23:51;1.87;;;1.20;;
9536;SDS011;4807;48.024;11.726;2023-03-30T12:27:11;3.83;;;1.37;;
9536;SDS011;4807;48.024;11.726;2023-03-30T12:30:23;3.97;;;1.53;;
9536;SDS011;4807;48.024;11.726;2023-03-30T12:33:35;2.10;;;1.20;;
9536;SDS011;4807;48.024;11.726;2023-03-30T12:36:56;3.50;;;0.97;;
9536;SDS011;4807;48.024;11.726;2023-03-30T12:40:13;5.33;;;1.30;;
9536;SDS011;4807;48.024;11.726;2023-03-30T12:43:29;5.00;;;1.00;;
9536;SDS011;4807;48.024;11.726;2023-03-30T12:46:55;3.60;;;1.10;;
9536;SDS011;4807;48.024;11.726;2023-03-30T12:59:18;2.57;;;1.00;;
9536;SDS011;4807;48.024;11.726;2023-03-30T13:03:06;5.30;;;1.40;;
9536;SDS011;4807;48.024;11.726;2023-03-30T13:06:41;3.83;;;1.33;;
9536;SDS011;4807;48.024;11.726;2023-03-30T13:09:59;2.83;;;1.07;;
9536;SDS011;4807;48.024;11.726;2023-03-30T13:13:16;3.20;;;1.00;;
9536;SDS011;4807;48.024;11.726;2023-03-30T13:16:46;2.13;;;0.90;;
9536;SDS011;4807;48.024;11.726;2023-03-30T13:20:27;2.27;;;1.03;;
9536;SDS011;4807;48.024;11.726;2023-03-30T13:23:42;1.80;;;0.90;;
9536;SDS011;4807;48.024;11.726;2023-03-30T13:26:51;4.57;;;1.47;;
9536;SDS011;4807;48.024;11.726;2023-03-30T13:30:01;2.93;;;1.07;;
9536;SDS011;4807;48.024;11.726;2023-03-30T13:33:17;1.63;;;1.13;;
9536;SDS011;4807;48.024;11.726;2023-03-30T13:36:31;1.73;;;0.90;;
9536;SDS011;4807;48.024;11.726;2023-03-30T13:39:54;3.23;;;1.33;;
9536;SDS011;4807;48.024;11.726;2023-03-30T13:43:19;1.40;;;1.00;;
9536;SDS011;4807;48.024;11.726;2023-03-30T13:46:43;2.77;;;1.00;;
9536;SDS011;4807;48.024;11.726;2023-03-30T13:49:59;4.83;;;1.10;;
9536;SDS011;4807;48.024;11.726;2023-03-30T13:53:13;4.20;;;1.30;;
9536;SDS011;4807;48.024;11.726;2023-03-30T13:56:28;2.07;;;0.90;;
9536;SDS011;4807;48.024;11.726;2023-03-30T13:59:41;2.17;;;1.27;;
9536;SDS011;4807;48.024;11.726;2023-03-30T14:02:58;1.90;;;0.90;;
9536;SDS011;4807;48.024;11.726;2023-03-30T14:06:44;1.37;;;1.27;;
9536;SDS011;4807;48.024;11.726;2023-03-30T14:10:04;3.13;;;1.10;;
9536;SDS011;4807;48.024;11.726;2023-03-30T14:13:20;2.43;;;1.27;;
9536;SDS011;4807;48.024;11.726;2023-03-30T14:16:32;5.27;;;1.40;;
9536;SDS011;4807;48.024;11.726;2023-03-30T14:19:47;2.47;;;1.10;;
9536;SDS011;4807;48.024;11.726;2023-03-30T14:23:16;4.63;;;1.10;;
9536;SDS011;4807;48.024;11.726;2023-03-30T14:26:32;1.60;;;1.00;;
9536;SDS011;4807;48.024;11.726;2023-03-30T14:29:53;3.70;;;1.10;;
9536;SDS011;4807;48.024;11.726;2023-03-30T14:33:04;2.70;;;1.10;;
9536;SDS011;4807;48.024;11.726;2023-03-30T14:36:16;0.83;;;0.80;;
9536;SDS011;4807;48.024;11.726;2023-03-30T14:39:29;5.00;;;1.33;;
9536;SDS011;4807;48.024;11.726;2023-03-30T14:42:48;1.90;;;1.17;;
9536;SDS011;4807;48.024;11.726;2023-03-30T14:46:02;4.43;;;1.73;;
9536;SDS011;4807;48.024;11.726;2023-03-30T14:49:17;3.07;;;1.67;;
9536;SDS011;4807;48.024;11.726;2023-03-30T14:52:37;4.47;;;1.87;;
9536;SDS011;4807;48.024;11.726;2023-03-30T14:55:48;4.77;;;1.97;;
9536;SDS011;4807;48.024;11.726;2023-03-30T14:59:04;5.57;;;2.83;;
9536;SDS011;4807;48.024;11.726;2023-03-30T15:02:20;9.73;;;2.93;;
9536;SDS011;4807;48.024;11.726;2023-03-30T15:05:34;8.93;;;3.90;;
9536;SDS011;4807;48.024;11.726;2023-03-30T15:08:47;6.07;;;2.50;;
9536;SDS011;4807;48.024;11.726;2023-03-30T15:11:58;5.20;;;2.13;;
9536;SDS011;4807;48.024;11.726;2023-03-30T15:15:23;4.00;;;1.90;;
9536;SDS011;4807;48.024;11.726;2023-03-30T15:18:42;3.20;;;2.43;;
9536;SDS011;4807;48.024;11.726;2023-03-30T15:21:53;3.67;;;2.23;;
9536;SDS011;4807;48.024;11.726;2023-03-30T15:25:13;5.13;;;2.27;;
9536;SDS011;4807;48.024;11.726;2023-03-30T15:28:29;9.83;;;5.57;;
9536;SDS011;4807;48.024;11.726;2023-03-30T15:31:59;12.57;;;7.73;;
9536;SDS011;4807;48.024;11.726;2023-03-30T15:35:19;12.93;;;6.83;;
9536;SDS011;4807;48.024;11.726;2023-03-30T15:38:31;19.43;;;10.90;;
9536;SDS011;4807;48.024;11.726;2023-03-30T15:41:43;4.43;;;3.10;;
9536;SDS011;4807;48.024;11.726;2023-03-30T15:45:00;7.37;;;3.10;;
9536;SDS011;4807;48.024;11.726;2023-03-30T15:48:17;4.23;;;3.83;;
9536;SDS011;4807;48.024;11.726;2023-03-30T15:51:35;5.67;;;4.77;;
9536;SDS011;4807;48.024;11.726;2023-03-30T15:54:49;2.77;;;2.50;;
9536;SDS011;4807;48.024;11.726;2023-03-30T15:58:00;2.87;;;2.67;;
9536;SDS011;4807;48.024;11.726;2023-03-30T16:01:10;4.70;;;2.57;;
9536;SDS011;4807;48.024;11.726;2023-03-30T16:04:21;4.13;;;2.80;;
9536;SDS011;4807;48.024;11.726;2023-03-30T16:07:32;4.90;;;2.37;;
9536;SDS011;4807;48.024;11.726;2023-03-30T16:10:41;2.87;;;1.83;;
9536;SDS011;4807;48.024;11.726;2023-03-30T16:13:50;5.27;;;2.20;;
9536;SDS011;4807;48.024;11.726;2023-03-30T16:17:00;3.17;;;2.33;;
9536;SDS011;4807;48.024;11.726;2023-03-30T16:20:16;1.80;;;1.70;;
9536;SDS011;4807;48.024;11.726;2023-03-30T16:23:28;2.17;;;1.97;;
9536;SDS011;4807;48.024;11.726;2023-03-30T16:26:37;6.67;;;2.33;;
9536;SDS011;4807;48.024;11.726;2023-03-30T16:29:45;2.23;;;1.70;;
9536;SDS011;4807;48.024;11.726;2023-03-30T16:32:53;3.20;;;1.63;;
9536;SDS011;4807;48.024;11.726;2023-03-30T16:36:02;2.47;;;1.70;;
9536;SDS011;4807;48.024;11.726;2023-03-30T16:39:15;4.37;;;2.00;;
9536;SDS011;4807;48.024;11.726;2023-03-30T16:42:25;3.77;;;2.10;;
9536;SDS011;4807;48.024;11.726;2023-03-30T16:45:33;1.90;;;1.60;;
9536;SDS011;4807;48.024;11.726;2023-03-30T16:48:42;3.27;;;2.37;;
9536;SDS011;4807;48.024;11.726;2023-03-30T16:51:51;2.93;;;2.53;;
9536;SDS011;4807;48.024;11.726;2023-03-30T16:55:05;4.87;;;2.73;;
9536;SDS011;4807;48.024;11.726;2023-03-30T16:58:15;3.87;;;2.30;;
9536;SDS011;4807;48.024;11.726;2023-03-30T17:01:25;8.43;;;3.57;;
9536;SDS011;4807;48.024;11.726;2023-03-30T17:04:34;6.83;;;3.73;;
9536;SDS011;4807;48.024;11.726;2023-03-30T17:07:43;4.30;;;2.97;;
9536;SDS011;4807;48.024;11.726;2023-03-30T17:10:53;4.23;;;2.43;;
9536;SDS011;4807;48.024;11.726;2023-03-30T17:14:05;2.70;;;2.50;;
9536;SDS011;4807;48.024;11.726;2023-03-30T17:17:13;5.77;;;2.93;;
9536;SDS011;4807;48.024;11.726;2023-03-30T17:20:23;5.07;;;3.33;;
9536;SDS011;4807;48.024;11.726;2023-03-30T17:23:35;5.17;;;3.93;;
9536;SDS011;4807;48.024;11.726;2023-03-30T17:26:45;4.00;;;3.70;;
9536;SDS011;4807;48.024;11.726;2023-03-30T17:29:53;6.33;;;3.33;;
9536;SDS011;4807;48.024;11.726;2023-03-30T17:33:02;4.77;;;3.17;;
9536;SDS011;4807;48.024;11.726;2023-03-30T17:36:16;6.63;;;3.67;;
9536;SDS011;4807;48.024;11.726;2023-03-30T17:39:27;4.27;;;3.57;;
9536;SDS011;4807;48.024;11.726;2023-03-30T17:42:38;5.07;;;3.33;;
9536;SDS011;4807;48.024;11.726;2023-03-30T17:45:46;4.57;;;4.10;;
9536;SDS011;4807;48.024;11.726;2023-03-30T17:48:55;4.07;;;3.67;;
9536;SDS011;4807;48.024;11.726;2023-03-30T17:52:04;6.00;;;3.20;;
9536;SDS011;4807;48.024;11.726;2023-03-30T17:55:12;6.50;;;4.27;;
9536;SDS011;4807;48.024;11.726;2023-03-30T17:58:23;9.10;;;4.20;;
9536;SDS011;4807;48.024;11.726;2023-03-30T18:01:37;6.80;;;3.90;;
9536;SDS011;4807;48.024;11.726;2023-03-30T18:04:45;7.87;;;3.53;;
9536;SDS011;4807;48.024;11.726;2023-03-30T18:07:54;6.33;;;3.10;;
9536;SDS011;4807;48.024;11.726;2023-03-30T18:11:02;3.10;;;2.80;;
9536;SDS011;4807;48.024;11.726;2023-03-30T18:14:13;4.97;;;3.07;;
9536;SDS011;4807;48.024;11.726;2023-03-30T18:17:21;3.20;;;2.90;;
9536;SDS011;4807;48.024;11.726;2023-03-30T18:20:31;5.40;;;3.43;;
9536;SDS011;4807;48.024;11.726;2023-03-30T18:23:42;7.10;;;3.73;;
9536;SDS011;4807;48.024;11.726;2023-03-30T18:26:51;6.47;;;3.27;;
9536;SDS011;4807;48.024;11.726;2023-03-30T18:30:00;5.93;;;3.07;;
9536;SDS011;4807;48.024;11.726;2023-03-30T18:33:08;4.90;;;3.07;;
9536;SDS011;4807;48.024;11.726;2023-03-30T18:36:17;5.53;;;3.33;;
9536;SDS011;4807;48.024;11.726;2023-03-30T18:39:26;5.17;;;3.57;;
9536;SDS011;4807;48.024;11.726;2023-03-30T18:42:34;4.53;;;3.03;;
9536;SDS011;4807;48.024;11.726;2023-03-30T18:45:46;5.10;;;3.07;;
9536;SDS011;4807;48.024;11.726;2023-03-30T18:48:56;4.43;;;3.10;;
9536;SDS011;4807;48.024;11.726;2023-03-30T18:52:04;5.43;;;3.20;;
9536;SDS011;4807;48.024;11.726;2023-03-30T18:55:13;4.30;;;2.83;;
9536;SDS011;4807;48.024;11.726;2023-03-30T18:58:24;4.13;;;3.13;;
9536;SDS011;4807;48.024;11.726;2023-03-30T19:01:35;4.23;;;2.60;;
9536;SDS011;4807;48.024;11.726;2023-03-30T19:04:44;4.13;;;3.37;;
9536;SDS011;4807;48.024;11.726;2023-03-30T19:07:52;4.67;;;2.83;;
9536;SDS011;4807;48.024;11.726;2023-03-30T19:11:01;3.33;;;2.20;;
9536;SDS011;4807;48.024;11.726;2023-03-30T19:14:10;3.77;;;2.10;;
9536;SDS011;4807;48.024;11.726;2023-03-30T19:17:22;3.83;;;2.40;;
9536;SDS011;4807;48.024;11.726;2023-03-30T19:20:30;5.57;;;2.60;;
9536;SDS011;4807;48.024;11.726;2023-03-30T19:23:43;3.20;;;2.33;;
9536;SDS011;4807;48.024;11.726;2023-03-30T19:26:51;2.70;;;1.77;;
9536;SDS011;4807;48.024;11.726;2023-03-30T19:30:00;2.60;;;1.70;;
9536;SDS011;4807;48.024;11.726;2023-03-30T19:33:11;3.00;;;1.90;;
9536;SDS011;4807;48.024;11.726;2023-03-30T19:36:25;2.90;;;1.53;;
9536;SDS011;4807;48.024;11.726;2023-03-30T19:39:33;1.67;;;1.57;;
9536;SDS011;4807;48.024;11.726;2023-03-30T19:42:41;4.17;;;1.83;;
9536;SDS011;4807;48.024;11.726;2023-03-30T19:45:50;3.13;;;2.07;;
9536;SDS011;4807;48.024;11.726;2023-03-30T19:49:00;3.00;;;1.60;;
9536;SDS011;4807;48.024;11.726;2023-03-30T19:52:08;4.23;;;1.57;;
9536;SDS011;4807;48.024;11.726;2023-03-30T19:55:16;2.37;;;1.37;;
9536;SDS011;4807;48.024;11.726;2023-03-30T19:58:25;2.60;;;1.80;;
9536;SDS011;4807;48.024;11.726;2023-03-30T20:01:36;2.97;;;1.40;;
9536;SDS011;4807;48.024;11.726;2023-03-30T20:04:46;3.57;;;1.50;;
9536;SDS011;4807;48.024;11.726;2023-03-30T20:07:54;2.10;;;1.30;;
9536;SDS011;4807;48.024;11.726;2023-03-30T20:11:04;4.00;;;2.43;;
9536;SDS011;4807;48.024;11.726;2023-03-30T20:14:12;4.03;;;2.50;;
9536;SDS011;4807;48.024;11.726;2023-03-30T20:17:21;1.93;;;1.53;;
9536;SDS011;4807;48.024;11.726;2023-03-30T20:20:31;4.00;;;1.80;;
9536;SDS011;4807;48.024;11.726;2023-03-30T20:23:40;3.10;;;1.30;;
9536;SDS011;4807;48.024;11.726;2023-03-30T20:26:48;2.80;;;1.30;;
9536;SDS011;4807;48.024;11.726;2023-03-30T20:29:58;4.03;;;1.23;;
9536;SDS011;4807;48.024;11.726;2023-03-30T20:33:06;2.73;;;1.27;;
9536;SDS011;4807;48.024;11.726;2023-03-30T20:36:17;1.23;;;1.13;;
9536;SDS011;4807;48.024;11.726;2023-03-30T20:39:27;2.67;;;1.40;;
9536;SDS011;4807;48.024;11.726;2023-03-30T20:42:35;1.17;;;1.00;;
9536;SDS011;4807;48.024;11.726;2023-03-30T20:45:45;2.53;;;0.80;;
9536;SDS011;4807;48.024;11.726;2023-03-30T20:48:56;3.03;;;1.10;;
9536;SDS011;4807;48.024;11.726;2023-03-30T20:52:08;1.90;;;1.07;;
9536;SDS011;4807;48.024;11.726;2023-03-30T20:55:17;2.10;;;1.10;;
9536;SDS011;4807;48.024;11.726;2023-03-30T20:58:26;1.73;;;0.93;;
9536;SDS011;4807;48.024;11.726;2023-03-30T21:01:35;1.93;;;1.40;;
9536;SDS011;4807;48.024;11.726;2023-03-30T21:04:46;1.90;;;1.10;;
9536;SDS011;4807;48.024;11.726;2023-03-30T21:07:56;3.90;;;1.00;;
9536;SDS011;4807;48.024;11.726;2023-03-30T21:11:05;3.73;;;1.50;;
9536;SDS011;4807;48.024;11.726;2023-03-30T21:14:15;2.33;;;1.23;;
9536;SDS011;4807;48.024;11.726;2023-03-30T21:17:23;2.37;;;1.60;;
9536;SDS011;4807;48.024;11.726;2023-03-30T21:20:32;2.00;;;1.40;;
9536;SDS011;4807;48.024;11.726;2023-03-30T21:23:42;2.13;;;1.50;;
9536;SDS011;4807;48.024;11.726;2023-03-30T21:26:52;1.40;;;1.30;;
9536;SDS011;4807;48.024;11.726;2023-03-30T21:30:01;2.47;;;1.70;;